createdAt,value
2023-10-09T00:00:55.823Z,955.5
2023-10-09T00:01:57.725Z,955.4
2023-10-09T00:03:00.269Z,955.5
2023-10-09T00:04:02.636Z,955.5
2023-10-09T00:05:04.701Z,955.5
2023-10-09T00:06:07.012Z,955.5
2023-10-09T00:07:09.705Z,955.5
2023-10-09T00:08:11.890Z,955.4
2023-10-09T00:09:13.860Z,955.5
2023-10-09T00:10:15.676Z,955.5
2023-10-09T00:11:17.436Z,955.5
2023-10-09T00:12:19.382Z,955.4
2023-10-09T00:13:21.267Z,955.5
2023-10-09T00:14:22.995Z,955.5
2023-10-09T00:15:24.962Z,955.4
2023-10-09T00:16:27.089Z,955.4
2023-10-09T00:17:28.962Z,955.4
2023-10-09T00:18:34.095Z,955.4
2023-10-09T00:19:35.965Z,955.4
2023-10-09T00:20:37.664Z,955.4
2023-10-09T00:21:39.345Z,955.5
2023-10-09T00:22:41.073Z,955.4
2023-10-09T00:23:43.315Z,955.4
2023-10-09T00:24:45.014Z,955.4
2023-10-09T00:25:46.702Z,955.3
2023-10-09T00:26:48.414Z,955.3
2023-10-09T00:27:50.135Z,955.3
2023-10-09T00:28:51.833Z,955.3
2023-10-09T00:29:53.704Z,955.4
2023-10-09T00:30:55.538Z,955.4
2023-10-09T00:31:57.339Z,955.3
2023-10-09T00:32:59.414Z,955.4
2023-10-09T00:34:01.777Z,955.4
2023-10-09T00:35:03.519Z,955.4
2023-10-09T00:36:05.318Z,955.4
2023-10-09T00:37:07.154Z,955.4
2023-10-09T00:38:08.945Z,955.4
2023-10-09T00:39:10.929Z,955.4
2023-10-09T00:40:12.764Z,955.4
2023-10-09T00:41:14.492Z,955.4
2023-10-09T00:42:16.404Z,955.4
2023-10-09T00:43:18.418Z,955.5
2023-10-09T00:44:20.201Z,955.5
2023-10-09T00:45:22.424Z,955.5
2023-10-09T00:46:24.463Z,955.5
2023-10-09T00:47:26.291Z,955.5
2023-10-09T00:48:28.081Z,955.5
2023-10-09T00:49:29.804Z,955.5
2023-10-09T00:50:31.494Z,955.5
2023-10-09T00:51:33.385Z,955.5
2023-10-09T00:52:35.217Z,955.5
2023-10-09T00:53:37.056Z,955.5
2023-10-09T00:54:39.060Z,955.5
2023-10-09T00:55:41.025Z,955.5
2023-10-09T00:56:42.711Z,955.6
2023-10-09T00:57:44.456Z,955.6
2023-10-09T00:58:46.143Z,955.5
2023-10-09T00:59:47.853Z,955.6
2023-10-09T01:00:49.541Z,955.5
2023-10-09T01:01:51.566Z,955.6
2023-10-09T01:02:53.899Z,955.6
2023-10-09T01:03:56.548Z,955.6
2023-10-09T01:04:58.564Z,955.7
2023-10-09T01:06:00.486Z,955.7
2023-10-09T01:07:02.222Z,955.7
2023-10-09T01:08:03.925Z,955.6
2023-10-09T01:09:05.765Z,955.6
2023-10-09T01:10:08.030Z,955.6
2023-10-09T01:11:10.381Z,955.7
2023-10-09T01:12:12.625Z,955.7
2023-10-09T01:13:14.922Z,955.7
2023-10-09T01:14:17.244Z,955.7
2023-10-09T01:15:19.099Z,955.7
2023-10-09T01:16:21.056Z,955.8
2023-10-09T01:17:23.134Z,955.9
2023-10-09T01:18:25.045Z,955.9
2023-10-09T01:19:26.791Z,956
2023-10-09T01:20:28.492Z,956.1
2023-10-09T01:21:30.638Z,956.1
2023-10-09T01:22:32.399Z,956.1
2023-10-09T01:23:34.101Z,956.1
2023-10-09T01:24:36.187Z,956.1
2023-10-09T01:25:38.204Z,956
2023-10-09T01:26:39.991Z,956
2023-10-09T01:27:41.955Z,956
2023-10-09T01:28:43.649Z,956
2023-10-09T01:29:45.705Z,956.1
2023-10-09T01:30:47.419Z,956.1
2023-10-09T01:31:49.257Z,956.2
2023-10-09T01:32:51.319Z,956.2
2023-10-09T01:33:53.709Z,956.2
2023-10-09T01:34:55.647Z,956.2
2023-10-09T01:35:57.609Z,956.2
2023-10-09T01:36:59.368Z,956.2
2023-10-09T01:38:01.075Z,956.2
2023-10-09T01:39:02.991Z,956.1
2023-10-09T01:40:04.890Z,956.2
2023-10-09T01:41:06.645Z,956.2
2023-10-09T01:42:08.455Z,956.2
2023-10-09T01:43:10.311Z,956.2
2023-10-09T01:44:12.476Z,956.2
2023-10-09T01:45:14.797Z,956.3
2023-10-09T01:46:16.761Z,956.3
2023-10-09T01:47:18.756Z,956.3
2023-10-09T01:48:21.116Z,956.3
2023-10-09T01:49:23.258Z,956.4
2023-10-09T01:50:24.955Z,956.2
2023-10-09T01:51:26.923Z,956.2
2023-10-09T01:52:28.761Z,956.2
2023-10-09T01:53:30.510Z,956.3
2023-10-09T01:54:32.359Z,956.3
2023-10-09T01:55:34.392Z,956.4
2023-10-09T01:56:36.256Z,956.5
2023-10-09T01:57:38.230Z,956.5
2023-10-09T01:58:40.102Z,956.6
2023-10-09T01:59:41.819Z,956.6
2023-10-09T02:00:43.534Z,956.6
2023-10-09T02:01:45.532Z,956.6
2023-10-09T02:02:47.840Z,956.5
2023-10-09T02:03:50.545Z,956.5
2023-10-09T02:04:52.637Z,956.5
2023-10-09T02:05:54.474Z,956.6
2023-10-09T02:06:56.646Z,956.7
2023-10-09T02:07:58.376Z,956.6
2023-10-09T02:09:00.156Z,956.6
2023-10-09T02:10:02.003Z,956.7
2023-10-09T02:11:03.733Z,956.6
2023-10-09T02:12:06.131Z,956.6
2023-10-09T02:13:09.234Z,956.6
2023-10-09T02:14:11.020Z,956.6
2023-10-09T02:15:12.961Z,956.6
2023-10-09T02:16:15.354Z,956.6
2023-10-09T02:17:17.289Z,956.6
2023-10-09T02:18:19.437Z,956.6
2023-10-09T02:19:21.484Z,956.6
2023-10-09T02:20:23.178Z,956.7
2023-10-09T02:21:24.985Z,956.7
2023-10-09T02:22:26.816Z,956.7
2023-10-09T02:23:28.554Z,956.8
2023-10-09T02:24:30.413Z,956.8
2023-10-09T02:25:32.195Z,956.8
2023-10-09T02:26:33.929Z,956.8
2023-10-09T02:27:35.884Z,956.8
2023-10-09T02:28:37.850Z,956.8
2023-10-09T02:29:39.728Z,956.8
2023-10-09T02:30:41.523Z,956.8
2023-10-09T02:31:43.463Z,956.8
2023-10-09T02:32:45.279Z,956.7
2023-10-09T02:33:47.286Z,956.8
2023-10-09T02:34:49.242Z,956.7
2023-10-09T02:35:51.119Z,956.8
2023-10-09T02:36:52.807Z,956.9
2023-10-09T02:37:54.518Z,956.9
2023-10-09T02:38:56.429Z,956.9
2023-10-09T02:39:58.144Z,957
2023-10-09T02:40:59.846Z,957
2023-10-09T02:42:02.097Z,957.1
2023-10-09T02:43:04.223Z,957.1
2023-10-09T02:44:06.115Z,957
2023-10-09T02:45:08.199Z,957.1
2023-10-09T02:46:10.129Z,957.1
2023-10-09T02:47:11.982Z,957.1
2023-10-09T02:48:13.900Z,957.2
2023-10-09T02:49:15.874Z,957.2
2023-10-09T02:50:17.565Z,957.2
2023-10-09T02:51:19.668Z,957.1
2023-10-09T02:52:21.494Z,957.2
2023-10-09T02:53:23.239Z,957.2
2023-10-09T02:54:25.415Z,957.1
2023-10-09T02:55:27.308Z,957.1
2023-10-09T02:56:29.863Z,957.1
2023-10-09T02:57:31.716Z,957.1
2023-10-09T02:58:33.986Z,957.2
2023-10-09T02:59:35.810Z,957.1
2023-10-09T03:00:38.235Z,957.1
2023-10-09T03:01:40.282Z,957.1
2023-10-09T03:02:42.253Z,957.1
2023-10-09T03:03:44.625Z,957.1
2023-10-09T03:04:47.062Z,957.1
2023-10-09T03:05:48.947Z,957.1
2023-10-09T03:06:50.668Z,957.2
2023-10-09T03:07:52.421Z,957.2
2023-10-09T03:08:54.151Z,957.2
2023-10-09T03:09:55.893Z,957.3
2023-10-09T03:10:57.606Z,957.2
2023-10-09T03:11:59.325Z,957.3
2023-10-09T03:13:01.028Z,957.3
2023-10-09T03:14:02.890Z,957.3
2023-10-09T03:15:04.720Z,957.4
2023-10-09T03:16:06.617Z,957.3
2023-10-09T03:17:08.486Z,957.3
2023-10-09T03:18:10.763Z,957.3
2023-10-09T03:19:12.663Z,957.3
2023-10-09T03:20:14.552Z,957.3
2023-10-09T03:21:16.364Z,957.3
2023-10-09T03:22:18.251Z,957.3
2023-10-09T03:23:20.431Z,957.3
2023-10-09T03:24:22.760Z,957.4
2023-10-09T03:25:24.509Z,957.4
2023-10-09T03:26:26.218Z,957.4
2023-10-09T03:27:28.016Z,957.4
2023-10-09T03:28:29.726Z,957.4
2023-10-09T03:29:31.669Z,957.5
2023-10-09T03:30:33.994Z,957.4
2023-10-09T03:31:36.210Z,957.4
2023-10-09T03:32:37.972Z,957.4
2023-10-09T03:33:39.894Z,957.4
2023-10-09T03:34:41.686Z,957.4
2023-10-09T03:35:43.366Z,957.4
2023-10-09T03:36:45.142Z,957.4
2023-10-09T03:37:47.172Z,957.5
2023-10-09T03:38:48.976Z,957.4
2023-10-09T03:39:50.702Z,957.5
2023-10-09T03:40:52.406Z,957.5
2023-10-09T03:41:54.092Z,957.4
2023-10-09T03:42:55.945Z,957.5
2023-10-09T03:43:57.670Z,957.5
2023-10-09T03:45:00.084Z,957.5
2023-10-09T03:46:02.312Z,957.5
2023-10-09T03:47:04.044Z,957.6
2023-10-09T03:48:06.225Z,957.5
2023-10-09T03:49:08.167Z,957.6
2023-10-09T03:50:09.901Z,957.5
2023-10-09T03:51:11.956Z,957.6
2023-10-09T03:52:13.921Z,957.5
2023-10-09T03:53:15.615Z,957.6
2023-10-09T03:54:18.524Z,957.6
2023-10-09T03:55:20.607Z,957.6
2023-10-09T03:56:22.418Z,957.6
2023-10-09T03:57:24.251Z,957.6
2023-10-09T03:58:26.481Z,957.6
2023-10-09T03:59:28.211Z,957.6
2023-10-09T04:00:30.522Z,957.6
2023-10-09T04:01:32.933Z,957.6
2023-10-09T04:02:35.059Z,957.6
2023-10-09T04:03:37.422Z,957.6
2023-10-09T04:04:39.867Z,957.6
2023-10-09T04:05:41.942Z,957.6
2023-10-09T04:06:43.712Z,957.6
2023-10-09T04:07:45.407Z,957.6
2023-10-09T04:08:47.100Z,957.6
2023-10-09T04:09:48.988Z,957.6
2023-10-09T04:10:51.673Z,957.6
2023-10-09T04:11:56.683Z,957.6
2023-10-09T04:12:58.396Z,957.7
2023-10-09T04:14:00.163Z,957.7
2023-10-09T04:15:02.031Z,957.6
2023-10-09T04:16:04.595Z,957.6
2023-10-09T04:17:06.466Z,957.7
2023-10-09T04:18:08.830Z,957.6
2023-10-09T04:19:11.175Z,957.6
2023-10-09T04:20:13.325Z,957.6
2023-10-09T04:21:15.221Z,957.7
2023-10-09T04:22:17.058Z,957.6
2023-10-09T04:23:18.823Z,957.7
2023-10-09T04:24:20.632Z,957.7
2023-10-09T04:25:22.380Z,957.7
2023-10-09T04:26:24.126Z,957.7
2023-10-09T04:27:25.955Z,957.6
2023-10-09T04:28:27.731Z,957.6
2023-10-09T04:29:29.394Z,957.6
2023-10-09T04:30:31.508Z,957.6
2023-10-09T04:31:34.320Z,957.6
2023-10-09T04:32:36.438Z,957.6
2023-10-09T04:33:38.380Z,957.7
2023-10-09T04:34:40.280Z,957.7
2023-10-09T04:35:42.052Z,957.7
2023-10-09T04:36:44.055Z,957.7
2023-10-09T04:37:45.919Z,957.7
2023-10-09T04:38:47.661Z,957.7
2023-10-09T04:39:49.387Z,957.8
2023-10-09T04:40:51.174Z,957.7
2023-10-09T04:41:52.994Z,957.8
2023-10-09T04:42:55.200Z,957.8
2023-10-09T04:43:56.933Z,957.8
2023-10-09T04:44:58.700Z,957.9
2023-10-09T04:46:00.693Z,957.9
2023-10-09T04:47:02.907Z,957.9
2023-10-09T04:48:05.002Z,957.8
2023-10-09T04:49:06.876Z,957.9
2023-10-09T04:50:08.605Z,957.9
2023-10-09T04:51:10.656Z,957.8
2023-10-09T04:52:12.631Z,957.8
2023-10-09T04:53:14.360Z,957.8
2023-10-09T04:54:16.395Z,957.7
2023-10-09T04:55:18.263Z,957.8
2023-10-09T04:56:20.229Z,957.8
2023-10-09T04:57:22.096Z,957.8
2023-10-09T04:58:23.918Z,957.8
2023-10-09T04:59:25.927Z,957.8
2023-10-09T05:00:29.901Z,957.8
2023-10-09T05:01:32.032Z,957.9
2023-10-09T05:02:34.312Z,957.9
2023-10-09T05:03:36.759Z,957.9
2023-10-09T05:04:38.989Z,958
2023-10-09T05:05:40.778Z,958
2023-10-09T05:06:42.676Z,958
2023-10-09T05:07:44.486Z,958
2023-10-09T05:08:46.207Z,958
2023-10-09T05:09:48.082Z,958
2023-10-09T05:10:49.829Z,958
2023-10-09T05:11:51.531Z,958
2023-10-09T05:12:53.306Z,958.1
2023-10-09T05:13:55.127Z,958
2023-10-09T05:14:56.899Z,958
2023-10-09T05:15:58.845Z,958
2023-10-09T05:17:00.860Z,958
2023-10-09T05:18:03.361Z,958
2023-10-09T05:19:05.414Z,958
2023-10-09T05:20:07.125Z,958
2023-10-09T05:21:08.935Z,958
2023-10-09T05:22:10.776Z,958.1
2023-10-09T05:23:12.484Z,958
2023-10-09T05:24:16.597Z,958.1
2023-10-09T05:25:18.528Z,958.1
2023-10-09T05:26:20.379Z,958.1
2023-10-09T05:27:22.131Z,958.1
2023-10-09T05:28:24.016Z,958.1
2023-10-09T05:29:25.808Z,958.1
2023-10-09T05:30:27.876Z,958.2
2023-10-09T05:31:30.240Z,958.2
2023-10-09T05:32:32.161Z,958.2
2023-10-09T05:33:34.276Z,958.3
2023-10-09T05:34:36.506Z,958.2
2023-10-09T05:35:38.256Z,958.2
2023-10-09T05:36:40.416Z,958.3
2023-10-09T05:37:42.206Z,958.3
2023-10-09T05:38:43.914Z,958.2
2023-10-09T05:39:45.859Z,958.3
2023-10-09T05:40:47.675Z,958.3
2023-10-09T05:41:49.721Z,958.3
2023-10-09T05:42:51.519Z,958.3
2023-10-09T05:43:53.249Z,958.3
2023-10-09T05:44:54.970Z,958.4
2023-10-09T05:45:57.195Z,958.4
2023-10-09T05:46:59.180Z,958.4
2023-10-09T05:48:01.134Z,958.5
2023-10-09T05:49:03.268Z,958.5
2023-10-09T05:50:05.329Z,958.5
2023-10-09T05:51:07.346Z,958.5
2023-10-09T05:52:09.200Z,958.5
2023-10-09T05:53:11.188Z,958.5
2023-10-09T05:54:13.193Z,958.5
2023-10-09T05:55:15.106Z,958.6
2023-10-09T05:56:16.851Z,958.6
2023-10-09T05:57:18.919Z,958.6
2023-10-09T05:58:20.762Z,958.6
2023-10-09T05:59:22.552Z,958.6
2023-10-09T06:00:24.365Z,958.6
2023-10-09T06:01:26.303Z,958.6
2023-10-09T06:02:28.266Z,958.6
2023-10-09T06:03:30.401Z,958.7
2023-10-09T06:04:32.923Z,958.7
2023-10-09T06:05:35.046Z,958.8
2023-10-09T06:06:36.927Z,958.8
2023-10-09T06:07:38.942Z,958.8
2023-10-09T06:08:40.802Z,958.8
2023-10-09T06:09:42.850Z,958.9
2023-10-09T06:10:44.787Z,958.8
2023-10-09T06:11:46.609Z,958.9
2023-10-09T06:12:57.925Z,958.9
2023-10-09T06:14:00.621Z,958.9
2023-10-09T06:15:02.507Z,958.8
2023-10-09T06:16:04.662Z,958.8
2023-10-09T06:17:06.547Z,958.8
2023-10-09T06:18:08.715Z,958.8
2023-10-09T06:19:10.742Z,958.9
2023-10-09T06:20:12.688Z,958.9
2023-10-09T06:21:14.622Z,958.9
2023-10-09T06:22:16.423Z,958.9
2023-10-09T06:23:18.305Z,959
2023-10-09T06:24:20.208Z,959
2023-10-09T06:25:22.059Z,959
2023-10-09T06:26:23.854Z,959
2023-10-09T06:27:26.144Z,959
2023-10-09T06:28:27.976Z,959
2023-10-09T06:29:29.756Z,959
2023-10-09T06:30:31.608Z,959
2023-10-09T06:31:33.567Z,959
2023-10-09T06:32:35.515Z,959
2023-10-09T06:33:37.744Z,959
2023-10-09T06:34:39.650Z,958.9
2023-10-09T06:35:41.447Z,959
2023-10-09T06:36:43.300Z,959
2023-10-09T06:37:49.311Z,959
2023-10-09T06:38:51.082Z,959
2023-10-09T06:39:52.810Z,959
2023-10-09T06:40:54.563Z,959
2023-10-09T06:41:56.597Z,959
2023-10-09T06:42:58.349Z,959
2023-10-09T06:44:00.125Z,959
2023-10-09T06:45:02.001Z,959.1
2023-10-09T06:46:04.015Z,959.1
2023-10-09T06:47:05.803Z,959.1
2023-10-09T06:48:07.905Z,959.2
2023-10-09T06:49:10.328Z,959.2
2023-10-09T06:50:12.276Z,959.1
2023-10-09T06:51:14.449Z,959.2
2023-10-09T06:52:17.046Z,959.1
2023-10-09T06:53:27.968Z,959.1
2023-10-09T06:54:29.864Z,959.1
2023-10-09T06:55:31.782Z,959.2
2023-10-09T06:56:33.583Z,959.1
2023-10-09T06:57:35.585Z,959.1
2023-10-09T06:58:37.351Z,959.1
2023-10-09T06:59:39.069Z,959.1
2023-10-09T07:00:41.110Z,959.1
2023-10-09T07:01:43.291Z,959.1
2023-10-09T07:02:45.344Z,959.1
2023-10-09T07:03:47.515Z,959.1
2023-10-09T07:04:49.719Z,959.1
2023-10-09T07:05:51.631Z,959.2
2023-10-09T07:06:53.759Z,959.1
2023-10-09T07:07:55.568Z,959.2
2023-10-09T07:08:57.316Z,959.2
2023-10-09T07:09:59.135Z,959.2
2023-10-09T07:11:00.906Z,959.2
2023-10-09T07:12:02.711Z,959.2
2023-10-09T07:13:09.031Z,959.1
2023-10-09T07:14:11.172Z,959.1
2023-10-09T07:15:13.483Z,959.1
2023-10-09T07:16:15.722Z,959.1
2023-10-09T07:17:18.169Z,959.1
2023-10-09T07:18:20.179Z,959.1
2023-10-09T07:19:22.321Z,959.1
2023-10-09T07:20:24.069Z,959.1
2023-10-09T07:21:26.097Z,959.1
2023-10-09T07:22:28.090Z,959.1
2023-10-09T07:23:29.938Z,959.2
2023-10-09T07:24:31.868Z,959.2
2023-10-09T07:25:33.817Z,959.3
2023-10-09T07:26:35.577Z,959.2
2023-10-09T07:27:37.424Z,959.2
2023-10-09T07:28:39.266Z,959.2
2023-10-09T07:29:41.016Z,959.2
2023-10-09T07:30:43.107Z,959.2
2023-10-09T07:31:49.201Z,959.2
2023-10-09T07:32:51.687Z,959.1
2023-10-09T07:33:53.845Z,959.2
2023-10-09T07:34:55.880Z,959.1
2023-10-09T07:35:57.599Z,959.1
2023-10-09T07:36:59.318Z,959.1
2023-10-09T07:38:01.193Z,959.1
2023-10-09T07:39:03.190Z,959.1
2023-10-09T07:40:04.978Z,959.1
2023-10-09T07:41:06.811Z,959
2023-10-09T07:42:09.351Z,959.1
2023-10-09T07:43:11.565Z,959.1
2023-10-09T07:44:13.936Z,959.1
2023-10-09T07:45:16.214Z,959.1
2023-10-09T07:46:18.319Z,959.1
2023-10-09T07:47:20.207Z,959.1
2023-10-09T07:48:22.162Z,959.1
2023-10-09T07:49:24.017Z,959.1
2023-10-09T07:50:25.960Z,959.1
2023-10-09T07:51:27.762Z,959.1
2023-10-09T07:52:29.582Z,959.1
2023-10-09T07:53:31.457Z,959.1
2023-10-09T07:54:33.981Z,959.1
2023-10-09T07:55:36.019Z,959.1
2023-10-09T07:56:37.814Z,959.1
2023-10-09T07:57:40.680Z,959.1
2023-10-09T07:58:42.751Z,959
2023-10-09T07:59:44.569Z,959.1
2023-10-09T08:00:46.630Z,959.1
2023-10-09T08:01:48.504Z,959.2
2023-10-09T08:02:50.532Z,959.2
2023-10-09T08:03:52.706Z,959.2
2023-10-09T08:04:54.847Z,959.2
2023-10-09T08:05:56.631Z,959.2
2023-10-09T08:08:16.672Z,959.2
2023-10-09T08:09:39.611Z,959.2
2023-10-09T08:10:41.621Z,959.1
2023-10-09T08:11:43.394Z,959.1
2023-10-09T08:12:45.252Z,959
2023-10-09T08:13:47.271Z,959.1
2023-10-09T08:14:49.069Z,959.1
2023-10-09T08:15:51.255Z,959.1
2023-10-09T08:16:53.801Z,959.1
2023-10-09T08:17:56.404Z,959.1
2023-10-09T08:18:58.576Z,959.2
2023-10-09T08:20:00.537Z,959.1
2023-10-09T08:21:02.256Z,959.1
2023-10-09T08:22:04.010Z,959.1
2023-10-09T08:23:05.787Z,959.1
2023-10-09T08:24:07.578Z,959.1
2023-10-09T08:25:09.944Z,959.1
2023-10-09T08:26:12.205Z,959
2023-10-09T08:27:14.055Z,959
2023-10-09T08:28:15.974Z,959
2023-10-09T08:29:17.770Z,958.9
2023-10-09T08:30:19.993Z,959
2023-10-09T08:31:22.359Z,958.9
2023-10-09T08:36:04.117Z,958.9
2023-10-09T08:37:07.126Z,958.9
2023-10-09T08:38:10.213Z,958.9
2023-10-09T08:39:12.435Z,958.9
2023-10-09T08:40:14.691Z,958.9
2023-10-09T08:41:16.531Z,958.9
2023-10-09T08:42:18.282Z,958.9
2023-10-09T08:43:19.982Z,958.8
2023-10-09T08:44:21.790Z,958.8
2023-10-09T08:45:23.545Z,958.7
2023-10-09T08:46:25.544Z,958.7
2023-10-09T08:47:27.511Z,958.7
2023-10-09T08:48:29.297Z,958.8
2023-10-09T08:49:31.184Z,958.7
2023-10-09T08:50:33.107Z,958.7
2023-10-09T08:51:35.136Z,958.7
2023-10-09T08:52:36.977Z,958.7
2023-10-09T08:53:38.836Z,958.7
2023-10-09T08:54:40.630Z,958.7
2023-10-09T08:55:42.910Z,958.6
2023-10-09T08:56:44.926Z,958.5
2023-10-09T08:57:46.785Z,958.6
2023-10-09T08:58:48.798Z,958.5
2023-10-09T08:59:50.653Z,958.5
2023-10-09T09:00:52.596Z,958.6
2023-10-09T09:01:54.507Z,958.5
2023-10-09T09:02:56.452Z,958.6
2023-10-09T09:03:58.475Z,958.6
2023-10-09T09:05:01.442Z,958.6
2023-10-09T09:06:03.646Z,958.6
2023-10-09T09:07:05.884Z,958.6
2023-10-09T09:08:07.769Z,958.5
2023-10-09T09:09:09.746Z,958.5
2023-10-09T09:10:11.453Z,958.5
2023-10-09T09:11:14.005Z,958.5
2023-10-09T09:12:16.075Z,958.5
2023-10-09T09:13:17.862Z,958.6
2023-10-09T09:14:19.529Z,958.6
2023-10-09T09:15:21.758Z,958.6
2023-10-09T09:16:23.930Z,958.5
2023-10-09T09:17:26.420Z,958.6
2023-10-09T09:18:28.667Z,958.6
2023-10-09T09:19:30.661Z,958.6
2023-10-09T09:20:32.392Z,958.6
2023-10-09T09:21:34.108Z,958.7
2023-10-09T09:22:36.035Z,958.7
2023-10-09T09:23:37.847Z,958.7
2023-10-09T09:24:39.577Z,958.6
2023-10-09T09:25:41.698Z,958.6
2023-10-09T09:26:43.580Z,958.5
2023-10-09T09:27:45.325Z,958.6
2023-10-09T09:28:47.224Z,958.6
2023-10-09T09:29:49.005Z,958.6
2023-10-09T09:30:50.812Z,958.6
2023-10-09T09:31:52.758Z,958.5
2023-10-09T09:32:54.866Z,958.5
2023-10-09T09:33:56.833Z,958.6
2023-10-09T09:34:59.181Z,958.5
2023-10-09T09:36:01.091Z,958.6
2023-10-09T09:37:02.831Z,958.5
2023-10-09T09:38:04.775Z,958.5
2023-10-09T09:39:06.714Z,958.5
2023-10-09T09:40:08.545Z,958.5
2023-10-09T09:41:10.783Z,958.5
2023-10-09T09:42:12.919Z,958.5
2023-10-09T09:43:14.651Z,958.4
2023-10-09T09:44:18.555Z,958.4
2023-10-09T09:45:20.302Z,958.4
2023-10-09T09:46:26.051Z,958.4
2023-10-09T09:47:29.457Z,958.4
2023-10-09T09:48:31.696Z,958.4
2023-10-09T09:49:33.509Z,958.4
2023-10-09T09:50:35.274Z,958.4
2023-10-09T09:51:37.028Z,958.4
2023-10-09T09:52:38.966Z,958.3
2023-10-09T09:53:41.619Z,958.3
2023-10-09T09:54:43.613Z,958.3
2023-10-09T09:55:45.443Z,958.3
2023-10-09T09:56:47.199Z,958.3
2023-10-09T09:57:49.172Z,958.3
2023-10-09T09:58:51.511Z,958.3
2023-10-09T09:59:53.774Z,958.3
2023-10-09T10:00:55.752Z,958.3
2023-10-09T10:01:58.276Z,958.3
2023-10-09T10:03:01.010Z,958.2
2023-10-09T10:04:03.003Z,958.2
2023-10-09T10:05:04.900Z,958.1
2023-10-09T10:06:06.753Z,958.1
2023-10-09T10:07:08.478Z,958.1
2023-10-09T10:08:10.235Z,958
2023-10-09T10:09:12.150Z,958
2023-10-09T10:10:14.482Z,958
2023-10-09T10:11:16.254Z,958
2023-10-09T10:12:18.124Z,958.1
2023-10-09T10:13:19.895Z,958
2023-10-09T10:14:22.030Z,958
2023-10-09T10:15:23.815Z,958
2023-10-09T10:16:25.883Z,958
2023-10-09T10:17:28.733Z,958
2023-10-09T10:18:31.103Z,957.9
2023-10-09T10:19:33.212Z,957.9
2023-10-09T10:20:34.960Z,957.9
2023-10-09T10:21:36.694Z,957.8
2023-10-09T10:22:38.518Z,957.8
2023-10-09T10:23:40.402Z,957.8
2023-10-09T10:24:42.123Z,957.8
2023-10-09T10:25:44.172Z,957.8
2023-10-09T10:26:46.030Z,957.8
2023-10-09T10:27:47.781Z,957.7
2023-10-09T10:28:49.908Z,957.7
2023-10-09T10:29:51.986Z,957.8
2023-10-09T10:30:57.923Z,957.7
2023-10-09T10:31:59.887Z,957.7
2023-10-09T10:33:01.979Z,957.7
2023-10-09T10:34:03.800Z,957.7
2023-10-09T10:35:05.608Z,957.6
2023-10-09T10:36:07.517Z,957.6
2023-10-09T10:37:09.223Z,957.6
2023-10-09T10:38:11.004Z,957.6
2023-10-09T10:39:14.048Z,957.6
2023-10-09T10:40:16.063Z,957.6
2023-10-09T10:41:18.573Z,957.5
2023-10-09T10:42:20.722Z,957.5
2023-10-09T10:43:22.466Z,957.3
2023-10-09T10:44:24.298Z,957.3
2023-10-09T10:45:26.104Z,957.3
2023-10-09T10:46:28.234Z,957.3
2023-10-09T10:47:30.454Z,957.3
2023-10-09T10:48:32.597Z,957.3
2023-10-09T10:49:34.533Z,957.2
2023-10-09T10:50:36.972Z,957.2
2023-10-09T10:51:38.870Z,957.2
2023-10-09T10:52:41.690Z,957.2
2023-10-09T10:53:44.172Z,957.2
2023-10-09T10:54:46.353Z,957.2
2023-10-09T10:55:48.721Z,957.2
2023-10-09T10:56:50.629Z,957.2
2023-10-09T10:57:52.464Z,957.2
2023-10-09T10:58:54.493Z,957.2
2023-10-09T10:59:56.687Z,957.2
2023-10-09T11:00:58.687Z,957.2
2023-10-09T11:02:01.001Z,957.2
2023-10-09T11:03:03.753Z,957.1
2023-10-09T11:04:06.449Z,957.1
2023-10-09T11:05:09.260Z,957.1
2023-10-09T11:06:11.549Z,957.1
2023-10-09T11:07:13.324Z,957.1
2023-10-09T11:08:15.117Z,957
2023-10-09T11:09:16.835Z,957.1
2023-10-09T11:10:18.568Z,957
2023-10-09T11:11:20.265Z,957
2023-10-09T11:12:21.950Z,957
2023-10-09T11:13:23.709Z,957
2023-10-09T11:14:26.046Z,957
2023-10-09T11:15:28.000Z,957
2023-10-09T11:16:30.264Z,957
2023-10-09T11:17:32.546Z,957
2023-10-09T11:18:34.494Z,956.9
2023-10-09T11:19:36.605Z,957
2023-10-09T11:20:38.478Z,956.9
2023-10-09T11:21:40.245Z,956.7
2023-10-09T11:22:42.169Z,956.7
2023-10-09T11:23:44.124Z,956.6
2023-10-09T11:24:45.883Z,956.6
2023-10-09T11:25:47.889Z,956.6
2023-10-09T11:26:49.713Z,956.5
2023-10-09T11:27:51.621Z,956.5
2023-10-09T11:28:54.415Z,956.5
2023-10-09T11:29:56.294Z,956.5
2023-10-09T11:30:58.464Z,956.5
2023-10-09T11:32:00.570Z,956.5
2023-10-09T11:33:02.847Z,956.5
2023-10-09T11:34:04.554Z,956.4
2023-10-09T11:35:06.598Z,956.5
2023-10-09T11:36:08.401Z,956.4
2023-10-09T11:37:10.144Z,956.4
2023-10-09T11:38:12.123Z,956.4
2023-10-09T11:39:13.979Z,956.4
2023-10-09T11:40:15.766Z,956.5
2023-10-09T11:41:17.537Z,956.5
2023-10-09T11:42:19.271Z,956.5
2023-10-09T11:43:21.005Z,956.5
2023-10-09T11:44:22.712Z,956.5
2023-10-09T11:45:24.512Z,956.4
2023-10-09T11:46:26.749Z,956.4
2023-10-09T11:47:28.890Z,956.5
2023-10-09T11:48:30.700Z,956.4
2023-10-09T11:49:32.519Z,956.4
2023-10-09T11:50:34.399Z,956.4
2023-10-09T11:51:36.170Z,956.4
2023-10-09T11:52:38.125Z,956.4
2023-10-09T11:53:40.105Z,956.3
2023-10-09T11:54:41.978Z,956.3
2023-10-09T11:55:43.770Z,956.3
2023-10-09T11:56:45.633Z,956.3
2023-10-09T11:57:47.423Z,956.3
2023-10-09T11:58:49.240Z,956.2
2023-10-09T11:59:51.131Z,956.3
2023-10-09T12:00:53.203Z,956.2
2023-10-09T12:01:55.697Z,956.2
2023-10-09T12:02:58.316Z,956.2
2023-10-09T12:04:00.535Z,956.1
2023-10-09T12:05:02.632Z,956.1
2023-10-09T12:06:04.391Z,956.1
2023-10-09T12:07:06.186Z,956
2023-10-09T12:08:07.989Z,956
2023-10-09T12:09:09.857Z,956
2023-10-09T12:10:11.586Z,956
2023-10-09T12:11:13.526Z,955.9
2023-10-09T12:12:15.474Z,955.9
2023-10-09T12:13:17.396Z,955.9
2023-10-09T12:14:19.136Z,955.8
2023-10-09T12:15:20.980Z,955.8
2023-10-09T12:16:22.785Z,955.9
2023-10-09T12:17:24.936Z,955.8
2023-10-09T12:18:27.322Z,955.8
2023-10-09T12:19:29.422Z,955.8
2023-10-09T12:20:31.813Z,955.8
2023-10-09T12:21:33.731Z,955.7
2023-10-09T12:22:35.619Z,955.7
2023-10-09T12:23:37.679Z,955.8
2023-10-09T12:24:39.678Z,955.7
2023-10-09T12:25:41.588Z,955.8
2023-10-09T12:26:43.347Z,955.8
2023-10-09T12:27:45.120Z,955.8
2023-10-09T12:28:47.652Z,955.8
2023-10-09T12:29:51.215Z,955.8
2023-10-09T12:30:53.044Z,955.8
2023-10-09T12:31:54.973Z,955.7
2023-10-09T12:32:57.516Z,955.7
2023-10-09T12:33:59.694Z,955.7
2023-10-09T12:35:01.799Z,955.6
2023-10-09T12:36:03.762Z,955.6
2023-10-09T12:37:05.490Z,955.6
2023-10-09T12:38:07.484Z,955.6
2023-10-09T12:39:09.343Z,955.6
2023-10-09T12:40:11.040Z,955.6
2023-10-09T12:41:12.819Z,955.6
2023-10-09T12:42:14.639Z,955.6
2023-10-09T12:43:16.438Z,955.6
2023-10-09T12:44:18.605Z,955.6
2023-10-09T12:45:20.586Z,955.6
2023-10-09T12:46:22.462Z,955.5
2023-10-09T12:47:24.579Z,955.5
2023-10-09T12:48:26.903Z,955.5
2023-10-09T12:49:28.863Z,955.5
2023-10-09T12:50:30.649Z,955.4
2023-10-09T12:51:32.589Z,955.4
2023-10-09T12:52:34.395Z,955.5
2023-10-09T12:53:36.139Z,955.4
2023-10-09T12:54:37.841Z,955.4
2023-10-09T12:55:39.712Z,955.4
2023-10-09T12:56:41.442Z,955.4
2023-10-09T12:57:43.206Z,955.4
2023-10-09T12:58:45.178Z,955.3
2023-10-09T12:59:47.429Z,955.3
2023-10-09T13:00:49.215Z,955.3
2023-10-09T13:01:51.032Z,955.3
2023-10-09T13:02:53.223Z,955.3
2023-10-09T13:03:55.789Z,955.3
2023-10-09T13:04:57.924Z,955.3
2023-10-09T13:06:00.075Z,955.2
2023-10-09T13:07:01.841Z,955.2
2023-10-09T13:08:03.873Z,955.2
2023-10-09T13:09:05.784Z,955.2
2023-10-09T13:10:07.984Z,955.3
2023-10-09T13:11:09.915Z,955.3
2023-10-09T13:12:11.769Z,955.2
2023-10-09T13:13:13.531Z,955.2
2023-10-09T13:14:16.282Z,955.1
2023-10-09T13:15:18.935Z,955.1
2023-10-09T13:16:20.717Z,955.1
2023-10-09T13:17:22.983Z,955.1
2023-10-09T13:18:25.161Z,955.1
2023-10-09T13:19:27.205Z,955
2023-10-09T13:20:29.016Z,955
2023-10-09T13:21:30.771Z,955
2023-10-09T13:22:32.629Z,955
2023-10-09T13:23:34.581Z,955
2023-10-09T13:24:36.326Z,955
2023-10-09T13:25:38.317Z,955
2023-10-09T13:26:40.630Z,954.9
2023-10-09T13:27:42.551Z,954.9
2023-10-09T13:28:44.465Z,954.9
2023-10-09T13:29:46.264Z,954.9